createdAt,value
2022-11-21T00:00:33.629Z,1.02
2022-11-21T00:01:37.357Z,1.02
2022-11-21T00:02:40.058Z,1.04
2022-11-21T00:03:43.767Z,1.05
2022-11-21T00:04:46.477Z,1.07
2022-11-21T00:05:51.306Z,1.10
2022-11-21T00:06:54.407Z,1.10
2022-11-21T00:07:58.878Z,1.12
2022-11-21T00:09:01.516Z,1.13
2022-11-21T00:10:05.629Z,1.15
2022-11-21T00:11:08.391Z,1.15
2022-11-21T00:12:13.487Z,1.17
2022-11-21T00:13:17.970Z,1.17
2022-11-21T00:14:21.948Z,1.17
2022-11-21T00:15:26.338Z,1.16
2022-11-21T00:16:30.267Z,1.17
2022-11-21T00:17:32.885Z,1.16
2022-11-21T00:18:37.079Z,1.16
2022-11-21T00:19:40.125Z,1.17
2022-11-21T00:20:44.165Z,1.18
2022-11-21T00:21:47.300Z,1.16
2022-11-21T00:22:54.120Z,1.17
2022-11-21T00:23:56.986Z,1.17
2022-11-21T00:25:00.968Z,1.17
2022-11-21T00:26:06.746Z,1.16
2022-11-21T00:27:10.736Z,1.18
2022-11-21T00:28:14.776Z,1.18
2022-11-21T00:29:18.597Z,1.19
2022-11-21T00:30:21.467Z,1.21
2022-11-21T00:31:26.227Z,1.22
2022-11-21T00:32:28.972Z,1.22
2022-11-21T00:33:32.855Z,1.23
2022-11-21T00:34:35.466Z,1.23
2022-11-21T00:35:39.186Z,1.24
2022-11-21T00:36:41.815Z,1.26
2022-11-21T00:37:45.568Z,1.28
2022-11-21T00:38:48.229Z,1.28
2022-11-21T00:39:51.988Z,1.30
2022-11-21T00:40:54.664Z,1.30
2022-11-21T00:41:58.416Z,1.29
2022-11-21T00:43:01.109Z,1.29
2022-11-21T00:44:06.647Z,1.29
2022-11-21T00:45:10.785Z,1.30
2022-11-21T00:46:14.819Z,1.30
2022-11-21T00:47:17.608Z,1.31
2022-11-21T00:48:21.399Z,1.29
2022-11-21T00:49:24.157Z,1.29
2022-11-21T00:50:27.854Z,1.29
2022-11-21T00:51:30.737Z,1.29
2022-11-21T00:52:34.636Z,1.29
2022-11-21T00:53:37.266Z,1.29
2022-11-21T00:54:41.017Z,1.29
2022-11-21T00:55:43.636Z,1.31
2022-11-21T00:56:47.307Z,1.31
2022-11-21T00:57:50.255Z,1.33
2022-11-21T00:58:54.145Z,1.33
2022-11-21T00:59:58.693Z,1.34
2022-11-21T01:01:07.466Z,1.33
2022-11-21T01:02:10.818Z,1.33
2022-11-21T01:03:14.526Z,1.33
2022-11-21T01:04:17.289Z,1.32
2022-11-21T01:05:21.065Z,1.32
2022-11-21T01:06:23.815Z,1.32
2022-11-21T01:07:27.581Z,1.30
2022-11-21T01:08:30.466Z,1.31
2022-11-21T01:09:34.298Z,1.31
2022-11-21T01:10:37.216Z,1.34
2022-11-21T01:11:41.317Z,1.35
2022-11-21T01:12:44.727Z,1.36
2022-11-21T01:13:49.095Z,1.39
2022-11-21T01:14:51.788Z,1.40
2022-11-21T01:15:57.005Z,1.41
2022-11-21T01:16:59.767Z,1.42
2022-11-21T01:18:03.752Z,1.41
2022-11-21T01:19:08.057Z,1.40
2022-11-21T01:20:11.456Z,1.40
2022-11-21T01:21:17.031Z,1.39
2022-11-21T01:22:19.736Z,1.38
2022-11-21T01:23:23.365Z,1.37
2022-11-21T01:24:26.267Z,1.35
2022-11-21T01:25:30.316Z,1.35
2022-11-21T01:26:33.318Z,1.35
2022-11-21T01:27:37.058Z,1.34
2022-11-21T01:28:40.603Z,1.34
2022-11-21T01:29:44.315Z,1.34
2022-11-21T01:30:47.148Z,1.34
2022-11-21T01:31:52.288Z,1.33
2022-11-21T01:32:54.938Z,1.30
2022-11-21T01:33:59.747Z,1.30
2022-11-21T01:35:02.637Z,1.29
2022-11-21T01:36:14.119Z,1.28
2022-11-21T01:37:16.730Z,1.28
2022-11-21T01:38:20.729Z,1.28
2022-11-21T01:39:23.676Z,1.28
2022-11-21T01:40:27.637Z,1.28
2022-11-21T01:41:33.847Z,1.28
2022-11-21T01:42:53.381Z,1.27
2022-11-21T01:43:57.054Z,1.26
2022-11-21T01:45:01.076Z,1.25
2022-11-21T01:46:10.576Z,1.23
2022-11-21T01:47:14.726Z,1.22
2022-11-21T01:48:18.519Z,1.19
2022-11-21T01:49:24.629Z,1.16
2022-11-21T01:50:27.372Z,1.14
2022-11-21T01:51:34.148Z,1.12
2022-11-21T01:52:36.781Z,1.10
2022-11-21T01:53:42.055Z,1.08
2022-11-21T01:54:46.741Z,1.06
2022-11-21T01:55:50.796Z,1.03
2022-11-21T01:56:58.447Z,1.01
2022-11-21T01:58:02.187Z,0.98
2022-11-21T01:59:07.165Z,0.94
2022-11-21T02:00:13.290Z,0.88
2022-11-21T02:01:17.414Z,0.83
2022-11-21T02:02:25.988Z,0.76
2022-11-21T02:03:30.981Z,0.69
2022-11-21T02:04:34.959Z,0.60
2022-11-21T02:05:39.815Z,0.52
2022-11-21T02:06:42.484Z,0.42
2022-11-21T02:07:48.033Z,0.33
2022-11-21T02:08:53.128Z,0.22
2022-11-21T02:10:00.287Z,0.11
2022-11-21T02:11:10.305Z,-0.02
2022-11-21T02:12:18.168Z,-0.15
2022-11-21T02:13:22.975Z,-0.27
2022-11-21T02:14:27.857Z,-0.38
2022-11-21T02:15:30.990Z,-0.49
2022-11-21T02:16:35.947Z,-0.60
2022-11-21T02:17:40.027Z,-0.71
2022-11-21T02:18:43.807Z,-0.80
2022-11-21T02:19:51.899Z,-0.92
2022-11-21T02:21:01.326Z,-1.02
2022-11-21T02:22:08.588Z,-1.11
2022-11-21T02:23:15.696Z,-1.20
2022-11-21T02:24:25.801Z,-1.27
2022-11-21T02:25:31.008Z,-1.35
2022-11-21T02:26:35.217Z,-1.41
2022-11-21T02:27:38.018Z,-1.49
2022-11-21T02:28:41.818Z,-1.55
2022-11-21T02:29:45.537Z,-1.62
2022-11-21T02:30:48.234Z,-1.71
2022-11-21T02:31:52.740Z,-1.81
2022-11-21T02:32:56.245Z,-1.90
2022-11-21T02:34:00.017Z,-1.98
2022-11-21T02:35:03.148Z,-2.06
2022-11-21T02:36:22.148Z,-2.12
2022-11-21T02:37:25.007Z,-2.22
2022-11-21T02:38:32.266Z,-2.27
2022-11-21T02:39:36.326Z,-2.33
2022-11-21T02:40:43.718Z,-2.39
2022-11-21T02:41:55.178Z,-2.43
2022-11-21T02:43:02.780Z,-2.49
2022-11-21T02:44:09.896Z,-2.53
2022-11-21T02:45:17.397Z,-2.56
2022-11-21T02:46:20.087Z,-2.62
2022-11-21T02:47:24.505Z,-2.66
2022-11-21T02:48:27.130Z,-2.72
2022-11-21T02:49:39.747Z,-2.80
2022-11-21T02:50:43.319Z,-2.88
2022-11-21T02:51:47.198Z,-2.93
2022-11-21T02:52:49.938Z,-2.97
2022-11-21T02:53:53.671Z,-3.02
2022-11-21T02:54:56.376Z,-3.06
2022-11-21T02:56:01.598Z,-3.12
2022-11-21T02:57:04.537Z,-3.17
2022-11-21T02:58:08.523Z,-3.24
2022-11-21T02:59:11.189Z,-3.31
2022-11-21T03:00:15.378Z,-3.36
2022-11-21T03:01:18.047Z,-3.42
2022-11-21T03:02:21.945Z,-3.45
2022-11-21T03:03:24.755Z,-3.47
2022-11-21T03:04:29.447Z,-3.47
2022-11-21T03:05:32.267Z,-3.47
2022-11-21T03:06:35.936Z,-3.47
2022-11-21T03:07:38.850Z,-3.45
2022-11-21T03:08:42.606Z,-3.43
2022-11-21T03:09:45.607Z,-3.37
2022-11-21T03:10:49.289Z,-3.30
2022-11-21T03:11:53.515Z,-3.23
2022-11-21T03:13:01.360Z,-3.16
2022-11-21T03:14:04.242Z,-3.10
2022-11-21T03:15:10.659Z,-3.03
2022-11-21T03:16:13.354Z,-2.96
2022-11-21T03:17:17.127Z,-2.90
2022-11-21T03:18:19.776Z,-2.83
2022-11-21T03:19:23.511Z,-2.74
2022-11-21T03:20:26.216Z,-2.66
2022-11-21T03:21:30.006Z,-2.61
2022-11-21T03:22:32.812Z,-2.56
2022-11-21T03:23:36.496Z,-2.51
2022-11-21T03:24:39.187Z,-2.53
2022-11-21T03:25:42.906Z,-2.54
2022-11-21T03:26:45.642Z,-2.56
2022-11-21T03:27:54.175Z,-2.62
2022-11-21T03:28:56.878Z,-2.69
2022-11-21T03:30:00.658Z,-2.75
2022-11-21T03:31:03.326Z,-2.84
2022-11-21T03:32:07.238Z,-2.95
2022-11-21T03:33:10.166Z,-3.05
2022-11-21T03:34:13.967Z,-3.15
2022-11-21T03:35:17.036Z,-3.24
2022-11-21T03:36:22.338Z,-3.28
2022-11-21T03:37:26.126Z,-3.32
2022-11-21T03:38:31.067Z,-3.35
2022-11-21T03:39:34.327Z,-3.42
2022-11-21T03:40:38.428Z,-3.44
2022-11-21T03:41:41.088Z,-3.48
2022-11-21T03:42:45.075Z,-3.51
2022-11-21T03:43:50.494Z,-3.52
2022-11-21T03:44:54.385Z,-3.56
2022-11-21T03:45:58.146Z,-3.61
2022-11-21T03:47:03.187Z,-3.63
2022-11-21T03:48:06.637Z,-3.67
2022-11-21T03:49:11.250Z,-3.68
2022-11-21T03:50:19.105Z,-3.71
2022-11-21T03:51:23.842Z,-3.77
2022-11-21T03:52:26.494Z,-3.78
2022-11-21T03:53:30.239Z,-3.79
2022-11-21T03:54:32.904Z,-3.81
2022-11-21T03:55:39.299Z,-3.84
2022-11-21T03:56:42.221Z,-3.88
2022-11-21T03:57:46.008Z,-3.91
2022-11-21T03:58:51.637Z,-3.97
2022-11-21T03:59:55.446Z,-3.99
2022-11-21T04:00:58.366Z,-3.97
2022-11-21T04:02:02.269Z,-3.90
2022-11-21T04:03:04.939Z,-3.82
2022-11-21T04:04:08.767Z,-3.77
2022-11-21T04:05:11.840Z,-3.73
2022-11-21T04:06:18.296Z,-3.70
2022-11-21T04:07:20.968Z,-3.72
2022-11-21T04:08:24.718Z,-3.75
2022-11-21T04:09:27.428Z,-3.78
2022-11-21T04:10:31.126Z,-3.77
2022-11-21T04:11:33.768Z,-3.74
2022-11-21T04:12:37.526Z,-3.71
2022-11-21T04:13:40.245Z,-3.69
2022-11-21T04:14:45.371Z,-3.71
2022-11-21T04:15:48.108Z,-3.78
2022-11-21T04:16:51.958Z,-3.85
2022-11-21T04:17:54.728Z,-3.90
2022-11-21T04:18:58.575Z,-3.93
2022-11-21T04:20:01.384Z,-3.98
2022-11-21T04:21:07.929Z,-4.01
2022-11-21T04:22:10.606Z,-4.08
2022-11-21T04:23:15.116Z,-4.12
2022-11-21T04:24:18.018Z,-4.15
2022-11-21T04:25:21.726Z,-4.17
2022-11-21T04:26:24.379Z,-4.15
2022-11-21T04:27:28.153Z,-4.08
2022-11-21T04:28:31.540Z,-4.03
2022-11-21T04:29:35.326Z,-4.01
2022-11-21T04:30:39.515Z,-3.97
2022-11-21T04:31:43.434Z,-3.96
2022-11-21T04:32:47.847Z,-3.98
2022-11-21T04:33:51.627Z,-3.99
2022-11-21T04:34:54.337Z,-4.04
2022-11-21T04:35:58.119Z,-4.10
2022-11-21T04:37:00.792Z,-4.15
2022-11-21T04:38:04.766Z,-4.21
2022-11-21T04:39:07.645Z,-4.22
2022-11-21T04:40:12.727Z,-4.24
2022-11-21T04:41:15.435Z,-4.23
2022-11-21T04:42:19.128Z,-4.18
2022-11-21T04:43:21.851Z,-4.17
2022-11-21T04:44:25.788Z,-4.15
2022-11-21T04:45:28.837Z,-4.16
2022-11-21T04:46:34.007Z,-4.19
2022-11-21T04:47:37.405Z,-4.22
2022-11-21T04:48:41.178Z,-4.24
2022-11-21T04:49:43.854Z,-4.28
2022-11-21T04:50:47.730Z,-4.32
2022-11-21T04:51:50.497Z,-4.35
2022-11-21T04:52:55.278Z,-4.38
2022-11-21T04:53:58.029Z,-4.44
2022-11-21T04:55:01.716Z,-4.49
2022-11-21T04:56:05.549Z,-4.53
2022-11-21T04:57:09.339Z,-4.57
2022-11-21T04:58:11.974Z,-4.61
2022-11-21T04:59:15.697Z,-4.64
2022-11-21T05:00:23.907Z,-4.66
2022-11-21T05:01:28.303Z,-4.71
2022-11-21T05:02:32.980Z,-4.74
2022-11-21T05:03:37.138Z,-4.79
2022-11-21T05:04:39.916Z,-4.82
2022-11-21T05:05:43.668Z,-4.84
2022-11-21T05:06:46.350Z,-4.87
2022-11-21T05:07:50.118Z,-4.89
2022-11-21T05:08:54.186Z,-4.91
2022-11-21T05:09:58.107Z,-4.88
2022-11-21T05:11:19.314Z,-4.81
2022-11-21T05:12:40.548Z,-4.69
2022-11-21T05:13:43.248Z,-4.56
2022-11-21T05:14:47.037Z,-4.48
2022-11-21T05:15:51.800Z,-4.40
2022-11-21T05:16:55.585Z,-4.32
2022-11-21T05:18:00.883Z,-4.22
2022-11-21T05:19:04.834Z,-4.15
2022-11-21T05:20:08.899Z,-4.04
2022-11-21T05:21:12.719Z,-3.95
2022-11-21T05:22:15.535Z,-3.83
2022-11-21T05:23:19.278Z,-3.71
2022-11-21T05:24:21.928Z,-3.58
2022-11-21T05:25:25.728Z,-3.47
2022-11-21T05:26:28.413Z,-3.34
2022-11-21T05:27:32.257Z,-3.24
2022-11-21T05:28:34.960Z,-3.16
2022-11-21T05:29:38.727Z,-3.08
2022-11-21T05:30:41.317Z,-2.99
2022-11-21T05:31:45.099Z,-2.93
2022-11-21T05:32:47.768Z,-2.85
2022-11-21T05:33:52.979Z,-2.78
2022-11-21T05:34:55.697Z,-2.71
2022-11-21T05:35:59.427Z,-2.66
2022-11-21T05:37:02.195Z,-2.62
2022-11-21T05:38:05.975Z,-2.57
2022-11-21T05:39:08.649Z,-2.52
2022-11-21T05:40:13.190Z,-2.48
2022-11-21T05:41:16.057Z,-2.44
2022-11-21T05:42:41.100Z,-2.42
2022-11-21T05:43:46.573Z,-2.40
2022-11-21T05:44:49.254Z,-2.38
2022-11-21T05:45:53.219Z,-2.35
2022-11-21T05:46:55.963Z,-2.33
2022-11-21T05:47:59.927Z,-2.31
2022-11-21T05:49:05.237Z,-2.30
2022-11-21T05:50:08.876Z,-2.31
2022-11-21T05:51:13.235Z,-2.31
2022-11-21T05:52:15.900Z,-2.29
2022-11-21T05:53:19.823Z,-2.27
2022-11-21T05:54:22.440Z,-2.25
2022-11-21T05:55:26.350Z,-2.24
2022-11-21T05:56:30.107Z,-2.22
2022-11-21T05:57:32.777Z,-2.21
2022-11-21T05:58:36.626Z,-2.21
2022-11-21T05:59:39.316Z,-2.21
2022-11-21T06:00:43.288Z,-2.23
2022-11-21T06:02:04.118Z,-2.22
2022-11-21T06:03:25.366Z,-2.25
2022-11-21T06:04:30.798Z,-2.28
2022-11-21T06:05:33.599Z,-2.32
2022-11-21T06:06:37.590Z,-2.34
2022-11-21T06:07:40.342Z,-2.41
2022-11-21T06:08:45.456Z,-2.49
2022-11-21T06:09:48.098Z,-2.60
2022-11-21T06:10:51.856Z,-2.69
2022-11-21T06:11:55.568Z,-2.78
2022-11-21T06:13:00.548Z,-2.88
2022-11-21T06:14:04.309Z,-2.95
2022-11-21T06:15:08.049Z,-3.01
2022-11-21T06:16:14.152Z,-3.06
2022-11-21T06:17:16.881Z,-3.11
2022-11-21T06:18:20.785Z,-3.13
2022-11-21T06:19:24.527Z,-3.15
2022-11-21T06:20:28.695Z,-3.17
2022-11-21T06:21:34.427Z,-3.19
2022-11-21T06:22:37.266Z,-3.21
2022-11-21T06:23:41.461Z,-3.24
2022-11-21T06:24:44.136Z,-3.27
2022-11-21T06:25:48.065Z,-3.30
2022-11-21T06:26:50.892Z,-3.32
2022-11-21T06:27:54.676Z,-3.38
2022-11-21T06:28:58.457Z,-3.37
2022-11-21T06:30:01.330Z,-3.40
2022-11-21T06:31:05.807Z,-3.41
2022-11-21T06:32:08.465Z,-3.45
2022-11-21T06:33:12.466Z,-3.49
2022-11-21T06:34:15.307Z,-3.51
2022-11-21T06:35:19.065Z,-3.53
2022-11-21T06:36:24.266Z,-3.53
2022-11-21T06:37:26.910Z,-3.55
2022-11-21T06:38:30.746Z,-3.57
2022-11-21T06:39:33.497Z,-3.58
2022-11-21T06:40:37.260Z,-3.59
2022-11-21T06:41:39.951Z,-3.59
2022-11-21T06:42:43.854Z,-3.59
2022-11-21T06:43:47.939Z,-3.60
2022-11-21T06:44:50.568Z,-3.63
2022-11-21T06:45:57.285Z,-3.65
2022-11-21T06:47:00.036Z,-3.63
2022-11-21T06:48:04.589Z,-3.59
2022-11-21T06:49:07.305Z,-3.55
2022-11-21T06:50:12.020Z,-3.51
2022-11-21T06:51:19.254Z,-3.44
2022-11-21T06:52:23.310Z,-3.37
2022-11-21T06:53:27.049Z,-3.29
2022-11-21T06:54:30.348Z,-3.25
2022-11-21T06:55:34.449Z,-3.20
2022-11-21T06:56:37.187Z,-3.12
2022-11-21T06:57:40.988Z,-3.04
2022-11-21T06:58:43.945Z,-2.97
2022-11-21T06:59:47.676Z,-2.90
2022-11-21T07:00:50.473Z,-2.85
2022-11-21T07:01:54.246Z,-2.79
2022-11-21T07:03:03.195Z,-2.74
2022-11-21T07:04:07.251Z,-2.70
2022-11-21T07:05:10.373Z,-2.65
2022-11-21T07:06:14.136Z,-2.58
2022-11-21T07:07:16.874Z,-2.50
2022-11-21T07:08:22.208Z,-2.44
2022-11-21T07:09:33.346Z,-2.39
2022-11-21T07:10:37.777Z,-2.36
2022-11-21T07:11:40.477Z,-2.31
2022-11-21T07:13:01.249Z,-2.26
2022-11-21T07:14:08.999Z,-2.20
2022-11-21T07:15:12.227Z,-2.12
2022-11-21T07:16:15.992Z,-2.02
2022-11-21T07:17:18.646Z,-1.93
2022-11-21T07:18:23.305Z,-1.86
2022-11-21T07:19:26.227Z,-1.75
2022-11-21T07:20:30.646Z,-1.65
2022-11-21T07:21:33.496Z,-1.54
2022-11-21T07:22:37.245Z,-1.44
2022-11-21T07:23:42.418Z,-1.34
2022-11-21T07:24:45.068Z,-1.24
2022-11-21T07:25:48.749Z,-1.17
2022-11-21T07:26:52.495Z,-1.12
2022-11-21T07:27:55.300Z,-1.05
2022-11-21T07:29:00.685Z,-0.99
2022-11-21T07:30:03.438Z,-0.95
2022-11-21T07:31:12.942Z,-0.91
2022-11-21T07:32:17.347Z,-0.89
2022-11-21T07:33:19.987Z,-0.84
2022-11-21T07:34:23.746Z,-0.81
2022-11-21T07:35:26.519Z,-0.79
2022-11-21T07:36:32.522Z,-0.76
2022-11-21T07:37:38.545Z,-0.74
2022-11-21T07:38:44.258Z,-0.71
2022-11-21T07:39:46.897Z,-0.68
2022-11-21T07:40:50.610Z,-0.64
2022-11-21T07:41:54.244Z,-0.60
2022-11-21T07:43:04.410Z,-0.57
2022-11-21T07:44:11.794Z,-0.54
2022-11-21T07:45:14.665Z,-0.50
2022-11-21T07:46:18.367Z,-0.45
2022-11-21T07:47:21.179Z,-0.41
2022-11-21T07:48:25.016Z,-0.35
2022-11-21T07:49:28.926Z,-0.31
2022-11-21T07:50:31.893Z,-0.25
2022-11-21T07:51:35.668Z,-0.20
2022-11-21T07:52:38.785Z,-0.16
2022-11-21T07:53:44.036Z,-0.11
2022-11-21T07:54:46.776Z,-0.07
2022-11-21T07:55:50.734Z,-0.02
2022-11-21T07:56:53.569Z,0.02
2022-11-21T07:58:01.109Z,0.08
2022-11-21T07:59:04.796Z,0.15
2022-11-21T08:00:08.936Z,0.21
2022-11-21T08:01:12.735Z,0.27
2022-11-21T08:02:20.716Z,0.34
2022-11-21T08:03:25.535Z,0.41
2022-11-21T08:04:29.290Z,0.49
2022-11-21T08:05:33.086Z,0.56
2022-11-21T08:06:36.306Z,0.62
2022-11-21T08:07:40.097Z,0.67
2022-11-21T08:08:45.656Z,0.74
2022-11-21T08:09:48.539Z,0.81
2022-11-21T08:10:52.198Z,0.85
2022-11-21T08:11:55.059Z,0.89
2022-11-21T08:12:58.853Z,0.94
2022-11-21T08:14:02.682Z,0.98
2022-11-21T08:15:07.241Z,1.01
2022-11-21T08:16:10.961Z,1.07
2022-11-21T08:17:15.182Z,1.11
2022-11-21T08:18:20.248Z,1.14
2022-11-21T08:19:23.899Z,1.20
2022-11-21T08:20:26.675Z,1.23
2022-11-21T08:21:31.689Z,1.28
2022-11-21T08:22:40.077Z,1.32
2022-11-21T08:23:45.187Z,1.35
2022-11-21T08:24:48.920Z,1.41
2022-11-21T08:25:52.731Z,1.45
2022-11-21T08:26:56.438Z,1.51
2022-11-21T08:27:59.727Z,1.58
2022-11-21T08:29:03.413Z,1.62
2022-11-21T08:30:07.746Z,1.66
2022-11-21T08:31:11.619Z,1.70
2022-11-21T08:32:15.470Z,1.73
2022-11-21T08:33:19.132Z,1.76
2022-11-21T08:34:22.893Z,1.79
2022-11-21T08:35:25.810Z,1.81
2022-11-21T08:36:29.572Z,1.82
2022-11-21T08:37:32.250Z,1.82
2022-11-21T08:38:35.936Z,1.85
2022-11-21T08:39:40.966Z,1.88
2022-11-21T08:40:43.689Z,1.92
2022-11-21T08:42:06.022Z,1.95
2022-11-21T08:43:11.246Z,1.99
2022-11-21T08:44:25.828Z,2.06
2022-11-21T08:45:29.936Z,2.17
2022-11-21T08:46:33.949Z,2.27
2022-11-21T08:47:37.687Z,2.37
2022-11-21T08:48:40.324Z,2.49
2022-11-21T08:49:44.005Z,2.59
2022-11-21T08:50:46.744Z,2.67
2022-11-21T08:51:50.789Z,2.74
2022-11-21T08:52:54.617Z,2.80
2022-11-21T08:53:57.246Z,2.83
2022-11-21T08:55:02.472Z,2.84
2022-11-21T08:56:05.353Z,2.86
2022-11-21T08:57:09.010Z,2.86
2022-11-21T08:58:12.700Z,2.88
2022-11-21T08:59:16.565Z,2.89
2022-11-21T09:00:20.658Z,2.88
2022-11-21T09:01:23.804Z,2.90
2022-11-21T09:02:27.655Z,2.90
2022-11-21T09:03:31.548Z,2.87
2022-11-21T09:04:35.438Z,2.86
2022-11-21T09:05:38.107Z,2.85
2022-11-21T09:06:41.873Z,2.84
2022-11-21T09:07:44.821Z,2.84
2022-11-21T09:08:48.617Z,2.83
2022-11-21T09:09:52.307Z,2.85
2022-11-21T09:10:57.460Z,2.86
2022-11-21T09:12:02.908Z,2.87
2022-11-21T09:13:05.641Z,2.88
2022-11-21T09:14:27.167Z,2.88
2022-11-21T09:15:48.529Z,2.87
2022-11-21T09:17:09.948Z,2.87
2022-11-21T09:18:13.841Z,2.86
2022-11-21T09:19:16.757Z,2.89
2022-11-21T09:20:20.549Z,2.93
2022-11-21T09:21:24.399Z,2.95
2022-11-21T09:22:28.108Z,2.97
2022-11-21T09:23:31.877Z,2.99
2022-11-21T09:24:34.573Z,3.02
2022-11-21T09:25:38.297Z,3.03
2022-11-21T09:26:43.438Z,3.03
2022-11-21T09:27:47.154Z,3.05
2022-11-21T09:28:49.832Z,3.08
2022-11-21T09:29:54.373Z,3.12
2022-11-21T09:30:59.146Z,3.16
2022-11-21T09:32:01.945Z,3.18
2022-11-21T09:33:06.907Z,3.21
2022-11-21T09:34:11.050Z,3.25
2022-11-21T09:35:13.860Z,3.28
2022-11-21T09:36:17.587Z,3.31
2022-11-21T09:37:20.301Z,3.35
2022-11-21T09:38:24.478Z,3.38
2022-11-21T09:39:28.521Z,3.40
2022-11-21T09:40:31.670Z,3.45
2022-11-21T09:41:54.820Z,3.50
2022-11-21T09:43:07.927Z,3.56
2022-11-21T09:44:16.687Z,3.62
2022-11-21T09:45:24.035Z,3.68
2022-11-21T09:46:28.590Z,3.72
2022-11-21T09:47:33.701Z,3.74
2022-11-21T09:48:44.594Z,3.79
2022-11-21T09:49:54.359Z,3.84
2022-11-21T09:51:01.477Z,3.88
2022-11-21T09:52:05.655Z,3.91
2022-11-21T09:53:14.449Z,3.98
2022-11-21T09:54:20.860Z,4.01
2022-11-21T09:55:29.983Z,4.07
2022-11-21T09:56:38.130Z,4.11
2022-11-21T09:57:41.919Z,4.13
2022-11-21T09:58:50.207Z,4.15
2022-11-21T09:59:53.411Z,4.15
2022-11-21T10:00:58.530Z,4.15
2022-11-21T10:02:02.620Z,4.17
2022-11-21T10:03:05.447Z,4.18
2022-11-21T10:04:09.249Z,4.19
2022-11-21T10:05:15.448Z,4.21
2022-11-21T10:06:21.572Z,4.24
2022-11-21T10:07:30.755Z,4.29
2022-11-21T10:08:42.143Z,4.33
2022-11-21T10:10:01.378Z,4.36
2022-11-21T10:11:19.384Z,4.40
2022-11-21T10:12:38.081Z,4.43
2022-11-21T10:13:54.649Z,4.47
2022-11-21T10:15:02.076Z,4.47
2022-11-21T10:16:10.987Z,4.46
2022-11-21T10:17:22.037Z,4.43
2022-11-21T10:18:39.920Z,4.39
2022-11-21T10:19:59.247Z,4.33
2022-11-21T10:21:08.968Z,4.30
2022-11-21T10:22:29.941Z,4.27
2022-11-21T10:24:00.936Z,4.24
2022-11-21T10:25:12.675Z,4.23
2022-11-21T10:26:17.419Z,4.21
2022-11-21T10:27:28.527Z,4.21
2022-11-21T10:28:35.949Z,4.22
2022-11-21T10:29:46.619Z,4.23
2022-11-21T10:30:52.140Z,4.24
2022-11-21T10:31:56.813Z,4.25
2022-11-21T10:33:03.783Z,4.29
2022-11-21T10:34:11.329Z,4.30
2022-11-21T10:35:17.173Z,4.35
2022-11-21T10:36:27.494Z,4.39
2022-11-21T10:37:37.917Z,4.44
2022-11-21T10:38:42.173Z,4.49
2022-11-21T10:39:48.309Z,4.53
2022-11-21T10:40:52.945Z,4.54
2022-11-21T10:42:00.749Z,4.57
2022-11-21T10:43:21.917Z,4.61
2022-11-21T10:44:45.647Z,4.66
2022-11-21T10:45:51.028Z,4.73
2022-11-21T10:46:56.772Z,4.78
2022-11-21T10:48:05.171Z,4.83
2022-11-21T10:49:13.945Z,4.87
2022-11-21T10:50:36.538Z,4.92
2022-11-21T10:51:47.182Z,4.94
2022-11-21T10:52:52.777Z,4.98
2022-11-21T10:54:25.144Z,5.01
2022-11-21T10:55:29.326Z,5.04
2022-11-21T10:56:34.015Z,5.08
2022-11-21T10:57:48.460Z,5.13
2022-11-21T10:58:53.990Z,5.16
2022-11-21T11:00:00.783Z,5.19
2022-11-21T11:01:06.126Z,5.26
2022-11-21T11:02:25.022Z,5.31
2022-11-21T11:03:34.718Z,5.34
2022-11-21T11:04:47.420Z,5.35
2022-11-21T11:05:57.535Z,5.40
2022-11-21T11:07:21.773Z,5.44
2022-11-21T11:08:27.774Z,5.47
2022-11-21T11:09:32.922Z,5.54
2022-11-21T11:10:38.494Z,5.58
2022-11-21T11:11:41.488Z,5.63
2022-11-21T11:13:05.308Z,5.65
2022-11-21T11:14:32.489Z,5.65
2022-11-21T11:15:36.779Z,5.68
2022-11-21T11:16:45.904Z,5.70
2022-11-21T11:17:54.588Z,5.72
2022-11-21T11:19:00.728Z,5.73
2022-11-21T11:20:08.032Z,5.75
2022-11-21T11:21:14.401Z,5.78
2022-11-21T11:22:29.292Z,5.80
2022-11-21T11:23:31.998Z,5.80
2022-11-21T11:24:35.796Z,5.81
2022-11-21T11:25:38.987Z,5.82
2022-11-21T11:26:52.688Z,5.81
2022-11-21T11:27:56.370Z,5.79
2022-11-21T11:29:10.418Z,5.77
2022-11-21T11:30:15.864Z,5.75
2022-11-21T11:31:19.705Z,5.72
2022-11-21T11:32:25.398Z,5.71
2022-11-21T11:33:33.287Z,5.68
2022-11-21T11:34:41.571Z,5.64
2022-11-21T11:35:44.380Z,5.63
2022-11-21T11:36:56.560Z,5.60
2022-11-21T11:38:02.198Z,5.57
2022-11-21T11:39:15.569Z,5.53
2022-11-21T11:40:23.437Z,5.51
2022-11-21T11:42:03.017Z,5.48
2022-11-21T11:43:42.540Z,5.45
2022-11-21T11:45:13.488Z,5.43
2022-11-21T11:46:44.799Z,5.40
2022-11-21T11:47:54.854Z,5.39
2022-11-21T11:49:19.614Z,5.40
2022-11-21T11:50:26.466Z,5.41
2022-11-21T11:51:34.689Z,5.42
2022-11-21T11:52:41.608Z,5.43
2022-11-21T11:53:48.214Z,5.45
2022-11-21T11:54:56.519Z,5.49
2022-11-21T11:56:02.649Z,5.50
2022-11-21T11:57:06.898Z,5.53
2022-11-21T11:58:18.922Z,5.55
2022-11-21T11:59:24.675Z,5.58
2022-11-21T12:00:33.996Z,5.59
2022-11-21T12:01:42.625Z,5.59
2022-11-21T12:02:54.446Z,5.59
2022-11-21T12:04:00.918Z,5.59
2022-11-21T12:05:08.374Z,5.61
2022-11-21T12:06:16.978Z,5.60
2022-11-21T12:08:51.658Z,5.57
2022-11-21T12:10:00.483Z,5.55
2022-11-21T12:11:30.251Z,5.54
2022-11-21T12:12:37.827Z,5.49
2022-11-21T12:13:40.837Z,5.47
2022-11-21T12:15:15.717Z,5.46
2022-11-21T12:16:20.041Z,5.44
2022-11-21T12:17:27.621Z,5.45
2022-11-21T12:18:38.699Z,5.45
2022-11-21T12:19:42.638Z,5.47
2022-11-21T12:20:51.498Z,5.49
2022-11-21T12:21:55.306Z,5.52
2022-11-21T12:22:59.247Z,5.53
2022-11-21T12:24:04.471Z,5.54
2022-11-21T12:25:11.919Z,5.56
2022-11-21T12:26:37.763Z,5.56
2022-11-21T12:27:42.619Z,5.55
2022-11-21T12:28:57.226Z,5.56
2022-11-21T12:30:22.737Z,5.57
2022-11-21T12:31:30.479Z,5.58
2022-11-21T12:32:43.040Z,5.59
2022-11-21T12:33:58.429Z,5.59
2022-11-21T12:35:19.848Z,5.61
2022-11-21T12:36:29.960Z,5.62
2022-11-21T12:37:39.656Z,5.63
2022-11-21T12:39:10.571Z,5.63
2022-11-21T12:40:28.726Z,5.62
2022-11-21T12:41:54.590Z,5.62
2022-11-21T12:43:07.387Z,5.61
2022-11-21T12:44:18.789Z,5.62
2022-11-21T12:45:33.424Z,5.62
2022-11-21T12:46:43.620Z,5.62
2022-11-21T12:48:31.110Z,5.63
2022-11-21T12:49:57.612Z,5.62
2022-11-21T12:51:58.171Z,5.63
2022-11-21T12:53:33.778Z,5.63
2022-11-21T12:55:02.302Z,5.66
2022-11-21T12:56:11.190Z,5.67
2022-11-21T12:57:20.039Z,5.69
2022-11-21T12:58:29.268Z,5.73
2022-11-21T12:59:35.244Z,5.73
2022-11-21T13:00:48.190Z,5.75
2022-11-21T13:01:55.854Z,5.77
2022-11-21T13:03:36.480Z,5.78
2022-11-21T13:04:43.159Z,5.80
2022-11-21T13:05:48.597Z,5.82
2022-11-21T13:06:53.040Z,5.85
2022-11-21T13:08:02.070Z,5.89
2022-11-21T13:09:08.939Z,5.93
2022-11-21T13:10:14.295Z,6.05
2022-11-21T13:11:48.319Z,6.29
2022-11-21T13:12:55.869Z,6.44
2022-11-21T13:14:03.744Z,6.46
2022-11-21T13:15:17.788Z,6.45
2022-11-21T13:16:37.035Z,6.43
2022-11-21T13:17:46.218Z,6.37
2022-11-21T13:18:50.524Z,6.35
2022-11-21T13:19:57.935Z,6.33
2022-11-21T13:21:01.810Z,6.29
2022-11-21T13:22:04.479Z,6.27
2022-11-21T13:23:39.810Z,6.22
2022-11-21T13:24:56.668Z,6.15
2022-11-21T13:26:00.464Z,6.13
2022-11-21T13:27:03.320Z,6.10
2022-11-21T13:28:39.917Z,6.06
2022-11-21T13:30:22.399Z,5.99
2022-11-21T13:31:31.797Z,5.95
2022-11-21T13:32:39.363Z,5.91
2022-11-21T13:33:51.808Z,5.88
2022-11-21T13:34:55.819Z,5.84
2022-11-21T13:35:59.215Z,5.80
2022-11-21T13:37:03.902Z,5.78
2022-11-21T13:38:07.629Z,5.75
2022-11-21T13:39:37.648Z,5.72
2022-11-21T13:41:02.476Z,5.68
2022-11-21T13:42:33.548Z,5.63
2022-11-21T13:43:38.069Z,5.59
2022-11-21T13:44:41.481Z,5.58
2022-11-21T13:45:48.573Z,5.59
2022-11-21T13:47:02.419Z,5.55
2022-11-21T13:48:23.677Z,5.54
2022-11-21T13:49:32.107Z,5.51
2022-11-21T13:50:53.970Z,5.50
2022-11-21T13:51:58.224Z,5.48
2022-11-21T13:53:09.634Z,5.49
2022-11-21T13:55:01.131Z,5.46
2022-11-21T13:56:11.879Z,5.44
2022-11-21T13:57:28.375Z,5.43
2022-11-21T13:58:43.902Z,5.40
2022-11-21T14:00:01.700Z,5.40
2022-11-21T14:01:40.257Z,5.39
2022-11-21T14:03:14.111Z,5.37
2022-11-21T14:04:49.775Z,5.36
2022-11-21T14:06:12.222Z,5.34
2022-11-21T14:07:24.959Z,5.34
2022-11-21T14:08:30.198Z,5.35
2022-11-21T14:09:38.733Z,5.35
2022-11-21T14:10:43.203Z,5.34
2022-11-21T14:11:50.158Z,5.34
2022-11-21T14:12:55.620Z,5.32
2022-11-21T14:13:58.337Z,5.31
2022-11-21T14:15:24.110Z,5.29
2022-11-21T14:16:32.933Z,5.25
2022-11-21T14:17:44.747Z,5.24
2022-11-21T14:18:48.703Z,5.21
2022-11-21T14:19:53.322Z,5.21
2022-11-21T14:21:00.047Z,5.18
2022-11-21T14:22:02.841Z,5.17
2022-11-21T14:23:07.891Z,5.15
2022-11-21T14:24:16.358Z,5.12
2022-11-21T14:25:21.269Z,5.09
2022-11-21T14:26:26.845Z,5.06
2022-11-21T14:27:31.560Z,5.03
2022-11-21T14:28:36.719Z,5.03
2022-11-21T14:29:41.022Z,5.00
2022-11-21T14:30:46.007Z,4.97
2022-11-21T14:31:49.669Z,4.95
2022-11-21T14:32:54.498Z,4.94
2022-11-21T14:33:59.616Z,4.92
2022-11-21T14:35:10.097Z,4.89
2022-11-21T14:36:16.379Z,4.86
2022-11-21T14:37:19.108Z,4.86
2022-11-21T14:38:23.899Z,4.84